createdAt,value
2018-06-29T00:01:04.058Z,0
2018-06-29T00:02:14.017Z,0
2018-06-29T00:03:23.734Z,0
2018-06-29T00:04:33.440Z,0
2018-06-29T00:05:43.156Z,0
2018-06-29T00:06:53.264Z,0
2018-06-29T00:08:03.228Z,0
2018-06-29T00:09:12.936Z,0
2018-06-29T00:10:22.639Z,0
2018-06-29T00:11:32.085Z,0
2018-06-29T00:12:42.054Z,0
2018-06-29T00:13:51.768Z,0
2018-06-29T00:15:01.881Z,0
2018-06-29T00:16:11.867Z,0
2018-06-29T00:17:21.839Z,0
2018-06-29T00:18:31.809Z,0
2018-06-29T00:19:41.779Z,0
2018-06-29T00:20:51.752Z,0
2018-06-29T00:22:01.498Z,0
2018-06-29T00:23:11.199Z,0
2018-06-29T00:24:21.167Z,0
2018-06-29T00:25:30.885Z,0
2018-06-29T00:26:40.861Z,0
2018-06-29T00:27:50.846Z,0
2018-06-29T00:29:01.019Z,0
2018-06-29T00:30:10.988Z,0
2018-06-29T00:31:20.176Z,0
2018-06-29T00:32:30.140Z,0
2018-06-29T00:33:40.101Z,0
2018-06-29T00:34:50.094Z,0
2018-06-29T00:36:00.075Z,0
2018-06-29T00:37:09.787Z,0
2018-06-29T00:38:19.491Z,0
2018-06-29T00:39:29.194Z,0
2018-06-29T00:40:38.656Z,0
2018-06-29T00:41:48.625Z,0
2018-06-29T00:42:58.067Z,0
2018-06-29T00:44:08.045Z,0
2018-06-29T00:45:18.006Z,0
2018-06-29T00:46:27.985Z,0
2018-06-29T00:47:37.702Z,0
2018-06-29T00:48:47.417Z,0
2018-06-29T00:49:57.140Z,0
2018-06-29T00:51:06.844Z,0
2018-06-29T00:52:16.889Z,0
2018-06-29T00:53:26.944Z,0
2018-06-29T00:54:36.593Z,0
2018-06-29T00:55:46.741Z,0
2018-06-29T00:56:56.704Z,0
2018-06-29T00:58:06.410Z,0
2018-06-29T00:59:16.390Z,0
2018-06-29T01:00:26.379Z,0
2018-06-29T01:01:36.338Z,0
2018-06-29T01:02:46.041Z,0
2018-06-29T01:03:55.992Z,0
2018-06-29T01:05:05.975Z,0
2018-06-29T01:06:15.950Z,0
2018-06-29T01:07:25.909Z,0
2018-06-29T01:08:35.636Z,0
2018-06-29T01:09:45.599Z,0
2018-06-29T01:10:55.569Z,0
2018-06-29T01:12:05.583Z,0
2018-06-29T01:13:15.566Z,0
2018-06-29T01:14:25.582Z,0
2018-06-29T01:15:35.549Z,0
2018-06-29T01:16:45.248Z,0
2018-06-29T01:17:55.214Z,0
2018-06-29T01:19:04.662Z,0
2018-06-29T01:20:14.628Z,0
2018-06-29T01:21:24.374Z,0
2018-06-29T01:22:34.363Z,0
2018-06-29T01:23:44.088Z,0
2018-06-29T01:24:53.786Z,0
2018-06-29T01:26:03.799Z,0
2018-06-29T01:27:13.770Z,0
2018-06-29T01:28:23.737Z,0
2018-06-29T01:29:33.722Z,0
2018-06-29T01:30:43.687Z,0
2018-06-29T01:31:53.663Z,0
2018-06-29T01:33:03.624Z,0
2018-06-29T01:34:13.578Z,0
2018-06-29T01:35:23.539Z,0
2018-06-29T01:36:33.514Z,0
2018-06-29T01:37:43.486Z,0
2018-06-29T01:38:53.445Z,0
2018-06-29T01:40:03.406Z,0
2018-06-29T01:41:13.390Z,0
2018-06-29T01:42:23.415Z,0
2018-06-29T01:43:33.394Z,0
2018-06-29T01:44:43.357Z,0
2018-06-29T01:45:53.374Z,0
2018-06-29T01:47:03.342Z,0
2018-06-29T01:48:13.314Z,0
2018-06-29T01:49:23.291Z,0
2018-06-29T01:50:33.260Z,0
2018-06-29T01:51:42.707Z,0
2018-06-29T01:52:52.685Z,0
2018-06-29T01:54:02.709Z,0
2018-06-29T01:55:12.420Z,0
2018-06-29T01:56:22.392Z,0
2018-06-29T01:57:32.356Z,0
2018-06-29T01:58:42.063Z,4
2018-06-29T01:59:52.031Z,4
2018-06-29T02:01:01.992Z,4
2018-06-29T02:02:11.960Z,0
2018-06-29T02:03:21.943Z,4
2018-06-29T02:04:31.967Z,4
2018-06-29T02:05:41.938Z,8
2018-06-29T02:06:51.910Z,4
2018-06-29T02:08:02.089Z,8
2018-06-29T02:09:12.164Z,4
2018-06-29T02:10:22.131Z,8
2018-06-29T02:11:32.103Z,8
2018-06-29T02:12:42.070Z,12
2018-06-29T02:13:52.044Z,12
2018-06-29T02:15:01.502Z,16
2018-06-29T02:16:11.203Z,16
2018-06-29T02:17:21.191Z,16
2018-06-29T02:18:30.903Z,20
2018-06-29T02:19:40.624Z,24
2018-06-29T02:20:50.582Z,28
2018-06-29T02:22:00.543Z,32
2018-06-29T02:23:10.252Z,36
2018-06-29T02:24:20.231Z,40
2018-06-29T02:25:30.204Z,48
2018-06-29T02:26:40.155Z,56
2018-06-29T02:27:50.405Z,64
2018-06-29T02:29:00.102Z,72
2018-06-29T02:30:10.062Z,80
2018-06-29T02:31:19.515Z,92
2018-06-29T02:32:28.962Z,104
2018-06-29T02:33:38.931Z,116
2018-06-29T02:34:48.902Z,128
2018-06-29T02:35:58.870Z,148
2018-06-29T02:37:08.833Z,164
2018-06-29T02:38:18.803Z,184
2018-06-29T02:39:28.507Z,204
2018-06-29T02:40:38.235Z,232
2018-06-29T02:41:48.261Z,256
2018-06-29T02:42:58.228Z,284
2018-06-29T02:44:08.208Z,312
2018-06-29T02:45:18.168Z,348
2018-06-29T02:46:28.123Z,380
2018-06-29T02:47:37.824Z,424
2018-06-29T02:48:47.779Z,464
2018-06-29T02:49:57.784Z,508
2018-06-29T02:51:07.740Z,552
2018-06-29T02:52:17.497Z,600
2018-06-29T02:53:27.482Z,652
2018-06-29T02:54:37.455Z,704
2018-06-29T02:55:47.171Z,760
2018-06-29T02:56:56.883Z,812
2018-06-29T02:58:06.854Z,872
2018-06-29T02:59:16.974Z,924
2018-06-29T03:00:26.698Z,988
2018-06-29T03:01:36.703Z,1044
2018-06-29T03:02:46.670Z,1120
2018-06-29T03:03:56.650Z,1192
2018-06-29T03:05:06.386Z,1252
2018-06-29T03:06:16.352Z,1352
2018-06-29T03:07:26.060Z,1436
2018-06-29T03:08:36.052Z,1468
2018-06-29T03:09:46.020Z,1532
2018-06-29T03:10:55.774Z,1608
2018-06-29T03:12:05.744Z,1676
2018-06-29T03:13:15.720Z,1748
2018-06-29T03:14:25.698Z,1836
2018-06-29T03:15:35.680Z,1924
2018-06-29T03:16:45.661Z,2016
2018-06-29T03:17:55.374Z,2104
2018-06-29T03:19:05.342Z,2188
2018-06-29T03:20:15.323Z,2272
2018-06-29T03:21:25.282Z,2352
2018-06-29T03:22:35.228Z,2432
2018-06-29T03:23:44.931Z,2520
2018-06-29T03:24:54.887Z,2604
2018-06-29T03:26:04.610Z,2684
2018-06-29T03:27:14.581Z,2768
2018-06-29T03:28:24.539Z,2856
2018-06-29T03:29:34.504Z,2936
2018-06-29T03:30:44.481Z,3020
2018-06-29T03:31:54.205Z,3104
2018-06-29T03:33:04.368Z,3184
2018-06-29T03:34:14.144Z,3264
2018-06-29T03:35:23.848Z,3348
2018-06-29T03:36:33.555Z,3420
2018-06-29T03:37:43.516Z,3500
2018-06-29T03:38:53.496Z,3576
2018-06-29T03:40:03.475Z,3656
2018-06-29T03:41:13.441Z,3732
2018-06-29T03:42:23.403Z,3808
2018-06-29T03:43:33.381Z,3880
2018-06-29T03:44:43.115Z,3956
2018-06-29T03:45:53.083Z,4024
2018-06-29T03:47:03.050Z,4096
2018-06-29T03:48:13.034Z,4168
2018-06-29T03:49:23.074Z,4236
2018-06-29T03:50:33.139Z,4308
2018-06-29T03:51:43.110Z,4376
2018-06-29T03:52:53.079Z,4440
2018-06-29T03:54:03.041Z,4508
2018-06-29T03:55:12.748Z,4576
2018-06-29T03:56:22.716Z,4644
2018-06-29T03:57:32.676Z,4708
2018-06-29T03:58:42.652Z,4768
2018-06-29T03:59:52.618Z,4836
2018-06-29T04:01:02.597Z,4896
2018-06-29T04:02:12.574Z,4956
2018-06-29T04:03:22.807Z,5020
2018-06-29T04:04:33.018Z,5076
2018-06-29T04:05:42.999Z,5136
2018-06-29T04:06:52.710Z,5192
2018-06-29T04:08:02.695Z,5240
2018-06-29T04:09:12.405Z,5296
2018-06-29T04:10:22.375Z,5344
2018-06-29T04:11:32.339Z,5400
2018-06-29T04:12:42.305Z,5448
2018-06-29T04:13:52.258Z,5496
2018-06-29T04:15:02.217Z,5548
2018-06-29T04:16:12.186Z,5596
2018-06-29T04:17:22.150Z,5640
2018-06-29T04:18:31.857Z,5692
2018-06-29T04:19:41.822Z,5744
2018-06-29T04:20:51.789Z,5788
2018-06-29T04:22:01.755Z,5832
2018-06-29T04:23:11.724Z,5872
2018-06-29T04:24:21.455Z,5920
2018-06-29T04:25:31.447Z,5960
2018-06-29T04:26:41.372Z,6004
2018-06-29T04:27:51.334Z,6040
2018-06-29T04:29:01.057Z,6080
2018-06-29T04:30:10.771Z,6120
2018-06-29T04:31:20.482Z,6160
2018-06-29T04:32:30.439Z,6204
2018-06-29T04:33:40.446Z,6252
2018-06-29T04:34:50.160Z,6300
2018-06-29T04:35:59.871Z,6348
2018-06-29T04:37:09.338Z,6404
2018-06-29T04:38:19.316Z,6420
2018-06-29T04:39:29.030Z,6448
2018-06-29T04:40:39.001Z,6488
2018-06-29T04:41:48.707Z,6512
2018-06-29T04:42:58.566Z,6532
2018-06-29T04:44:08.763Z,6592
2018-06-29T04:45:18.465Z,6632
2018-06-29T04:46:28.444Z,6676
2018-06-29T04:47:38.420Z,6712
2018-06-29T04:48:48.374Z,6732
2018-06-29T04:49:58.336Z,6748
2018-06-29T04:51:08.046Z,6752
2018-06-29T04:52:17.763Z,6748
2018-06-29T04:53:27.789Z,6712
2018-06-29T04:54:37.757Z,6736
2018-06-29T04:55:47.471Z,6800
2018-06-29T04:56:57.445Z,6828
2018-06-29T04:58:07.407Z,6908
2018-06-29T04:59:17.472Z,6976
2018-06-29T05:00:27.473Z,7024
2018-06-29T05:01:37.179Z,7056
2018-06-29T05:02:47.159Z,7092
2018-06-29T05:03:57.131Z,7120
2018-06-29T05:05:07.106Z,7152
2018-06-29T05:06:17.068Z,7184
2018-06-29T05:07:27.023Z,7208
2018-06-29T05:08:36.739Z,7240
2018-06-29T05:09:46.715Z,7272
2018-06-29T05:10:56.170Z,7300
2018-06-29T05:12:06.135Z,7328
2018-06-29T05:13:15.838Z,7356
2018-06-29T05:14:25.294Z,7380
2018-06-29T05:15:35.219Z,7404
2018-06-29T05:16:45.353Z,7424
2018-06-29T05:17:55.058Z,7448
2018-06-29T05:19:05.029Z,7464
2018-06-29T05:20:15.039Z,7484
2018-06-29T05:21:24.742Z,7508
2018-06-29T05:22:34.717Z,7524
2018-06-29T05:23:44.692Z,7548
2018-06-29T05:24:54.672Z,7556
2018-06-29T05:26:04.644Z,7568
2018-06-29T05:27:14.372Z,7592
2018-06-29T05:28:24.344Z,7600
2018-06-29T05:29:34.051Z,7620
2018-06-29T05:30:44.019Z,7644
2018-06-29T05:31:53.989Z,7672
2018-06-29T05:33:03.958Z,7692
2018-06-29T05:34:13.934Z,7716
2018-06-29T05:35:23.663Z,7744
2018-06-29T05:36:33.653Z,7768
2018-06-29T05:37:43.373Z,7792
2018-06-29T05:38:53.344Z,7816
2018-06-29T05:40:03.066Z,7832
2018-06-29T05:41:13.040Z,7848
2018-06-29T05:42:22.759Z,7860
2018-06-29T05:43:32.739Z,7876
2018-06-29T05:44:42.734Z,7880
2018-06-29T05:45:52.739Z,7892
2018-06-29T05:47:02.665Z,7892
2018-06-29T05:48:12.612Z,7900
2018-06-29T05:49:22.849Z,7912
2018-06-29T05:50:32.274Z,7916
2018-06-29T05:51:42.292Z,7920
2018-06-29T05:52:52.316Z,7924
2018-06-29T05:54:02.290Z,7936
2018-06-29T05:55:12.273Z,7940
2018-06-29T05:56:21.992Z,7948
2018-06-29T05:57:32.218Z,7952
2018-06-29T05:58:42.147Z,7956
2018-06-29T05:59:51.864Z,7956
2018-06-29T06:01:01.847Z,7968
2018-06-29T06:02:11.755Z,7972
2018-06-29T06:03:21.212Z,7976
2018-06-29T06:04:31.220Z,7988
2018-06-29T06:05:41.292Z,7992
2018-06-29T06:06:51.033Z,7992
2018-06-29T06:08:01.024Z,7996
2018-06-29T06:09:10.998Z,8004
2018-06-29T06:10:21.168Z,8008
2018-06-29T06:11:30.887Z,8012
2018-06-29T06:12:40.856Z,8020
2018-06-29T06:13:50.590Z,8028
2018-06-29T06:15:00.584Z,8040
2018-06-29T06:16:10.999Z,8056
2018-06-29T06:17:21.211Z,8068
2018-06-29T06:18:31.212Z,8112
2018-06-29T06:19:41.186Z,8176
2018-06-29T06:20:50.656Z,8240
2018-06-29T06:22:00.923Z,8308
2018-06-29T06:23:11.102Z,8356
2018-06-29T06:24:21.075Z,8400
2018-06-29T06:25:30.530Z,8444
2018-06-29T06:26:40.755Z,8488
2018-06-29T06:27:50.749Z,8528
2018-06-29T06:29:00.727Z,8564
2018-06-29T06:30:10.441Z,8604
2018-06-29T06:31:20.410Z,8636
2018-06-29T06:32:30.403Z,8664
2018-06-29T06:33:40.393Z,8696
2018-06-29T06:34:50.384Z,8720
2018-06-29T06:36:00.363Z,8748
2018-06-29T06:37:10.111Z,8772
2018-06-29T06:38:20.085Z,8792
2018-06-29T06:39:29.802Z,8796
2018-06-29T06:40:39.768Z,8796
2018-06-29T06:41:50.027Z,8796
2018-06-29T06:42:59.763Z,8804
2018-06-29T06:44:09.747Z,8816
2018-06-29T06:45:19.720Z,8828
2018-06-29T06:46:29.454Z,8840
2018-06-29T06:47:39.183Z,8848
2018-06-29T06:48:49.175Z,8868
2018-06-29T06:49:59.177Z,8892
2018-06-29T06:51:09.169Z,8900
2018-06-29T06:52:18.917Z,8908
2018-06-29T06:53:28.658Z,8916
2018-06-29T06:54:38.684Z,8928
2018-06-29T06:55:48.450Z,8944
2018-06-29T06:56:58.493Z,8960
2018-06-29T06:58:08.466Z,8976
2018-06-29T06:59:17.921Z,8996
2018-06-29T07:00:27.702Z,9020
2018-06-29T07:01:37.414Z,9028
2018-06-29T07:02:47.405Z,9056
2018-06-29T07:03:57.418Z,9068
2018-06-29T07:05:07.147Z,9076
2018-06-29T07:06:17.145Z,9080
2018-06-29T07:07:27.137Z,9088
2018-06-29T07:08:37.130Z,9104
2018-06-29T07:09:47.121Z,9128
2018-06-29T07:10:57.104Z,9152
2018-06-29T07:12:07.102Z,9164
2018-06-29T07:13:17.121Z,9168
2018-06-29T07:14:26.876Z,9168
2018-06-29T07:15:36.889Z,9156
2018-06-29T07:16:46.876Z,9204
2018-06-29T07:17:56.609Z,9232
2018-06-29T07:19:06.589Z,9244
2018-06-29T07:20:16.333Z,9256
2018-06-29T07:21:26.412Z,9276
2018-06-29T07:22:36.145Z,9288
2018-06-29T07:23:46.131Z,9300
2018-06-29T07:24:56.139Z,9316
2018-06-29T07:26:06.108Z,9336
2018-06-29T07:27:15.827Z,9356
2018-06-29T07:28:25.808Z,9372
2018-06-29T07:29:35.792Z,9396
2018-06-29T07:30:45.532Z,9412
2018-06-29T07:31:55.531Z,9428
2018-06-29T07:33:05.507Z,9452
2018-06-29T07:34:15.510Z,9468
2018-06-29T07:35:25.301Z,9488
2018-06-29T07:36:35.294Z,9512
2018-06-29T07:37:45.026Z,9560
2018-06-29T07:38:54.776Z,9604
2018-06-29T07:40:04.770Z,9632
2018-06-29T07:41:14.805Z,9652
2018-06-29T07:42:24.791Z,9676
2018-06-29T07:43:34.532Z,9700
2018-06-29T07:44:44.523Z,9728
2018-06-29T07:45:54.242Z,9748
2018-06-29T07:47:03.967Z,9592
2018-06-29T07:48:13.729Z,9464
2018-06-29T07:49:23.447Z,9676
2018-06-29T07:50:33.440Z,9628
2018-06-29T07:51:43.442Z,9812
2018-06-29T07:52:53.630Z,9888
2018-06-29T07:54:03.804Z,9928
2018-06-29T07:55:13.547Z,9968
2018-06-29T07:56:23.849Z,9980
2018-06-29T07:57:33.869Z,10004
2018-06-29T07:58:44.435Z,10032
2018-06-29T07:59:54.362Z,10032
2018-06-29T08:01:04.395Z,10080
2018-06-29T08:02:14.144Z,10116
2018-06-29T08:03:24.161Z,10144
2018-06-29T08:04:33.897Z,10176
2018-06-29T08:05:43.662Z,10196
2018-06-29T08:06:53.687Z,10228
2018-06-29T08:08:03.667Z,10224
2018-06-29T08:09:13.386Z,10248
2018-06-29T08:10:23.360Z,10208
2018-06-29T08:11:33.077Z,10224
2018-06-29T08:12:43.068Z,10356
2018-06-29T08:13:52.795Z,10528
2018-06-29T08:15:02.778Z,10644
2018-06-29T08:16:12.499Z,10760
2018-06-29T08:17:21.968Z,10832
2018-06-29T08:18:31.935Z,10732
2018-06-29T08:19:41.400Z,10880
2018-06-29T08:20:51.376Z,10964
2018-06-29T08:22:01.359Z,11032
2018-06-29T08:23:10.582Z,11204
2018-06-29T08:24:20.676Z,11460
2018-06-29T08:25:30.475Z,11764
2018-06-29T08:26:39.963Z,11976
2018-06-29T08:27:49.949Z,12172
2018-06-29T08:28:59.954Z,12336
2018-06-29T08:30:09.527Z,12156
2018-06-29T08:31:19.749Z,12372
2018-06-29T08:32:29.709Z,12708
2018-06-29T08:33:39.424Z,12728
2018-06-29T08:34:49.162Z,12964
2018-06-29T08:35:58.876Z,13172
2018-06-29T08:37:08.838Z,16824
2018-06-29T08:38:18.811Z,36768
2018-06-29T08:39:28.822Z,45504
2018-06-29T08:40:38.795Z,44416
2018-06-29T08:41:48.772Z,47168
2018-06-29T08:42:58.757Z,49344
2018-06-29T08:44:08.537Z,50880
2018-06-29T08:45:18.605Z,51296
2018-06-29T08:46:28.082Z,48416
2018-06-29T08:47:38.085Z,50208
2018-06-29T08:48:48.058Z,53056
2018-06-29T08:49:57.530Z,54176
2018-06-29T08:51:07.549Z,55232
2018-06-29T08:52:17.495Z,55360
2018-06-29T08:53:27.656Z,56064
2018-06-29T08:54:37.378Z,56064
2018-06-29T08:55:47.362Z,57344
2018-06-29T08:56:57.337Z,58592
2018-06-29T08:58:06.804Z,57984
2018-06-29T08:59:16.521Z,57536
2018-06-29T09:00:26.570Z,58272
2018-06-29T09:01:36.318Z,57440
2018-06-29T09:02:46.309Z,60672
2018-06-29T09:03:56.317Z,60928
2018-06-29T09:05:06.571Z,56672
2018-06-29T09:06:16.557Z,62624
2018-06-29T09:07:26.542Z,63232
2018-06-29T09:08:36.575Z,65440
2018-06-29T09:09:46.556Z,59296
2018-06-29T09:10:55.883Z,51328
2018-06-29T09:12:05.928Z,57184
2018-06-29T09:13:15.929Z,64480
2018-06-29T09:14:25.967Z,65184
2018-06-29T09:15:35.704Z,64544
2018-06-29T09:16:45.694Z,62944
2018-06-29T09:17:55.413Z,62080
2018-06-29T09:19:05.566Z,64352
2018-06-29T09:20:15.639Z,63712
2018-06-29T09:21:25.683Z,65472
2018-06-29T09:22:35.699Z,68096
2018-06-29T09:23:45.456Z,69984
2018-06-29T09:24:55.227Z,69280
2018-06-29T09:26:04.983Z,70624
2018-06-29T09:27:14.717Z,72384
2018-06-29T09:28:24.706Z,72224
2018-06-29T09:29:34.717Z,71360
2018-06-29T09:30:44.719Z,72448
2018-06-29T09:31:54.733Z,74880
2018-06-29T09:33:04.742Z,78016
2018-06-29T09:34:14.491Z,76928
2018-06-29T09:35:24.499Z,77376
2018-06-29T09:36:34.352Z,79712
2018-06-29T09:37:44.357Z,79008
2018-06-29T09:38:54.103Z,80096
2018-06-29T09:40:03.837Z,77984
2018-06-29T09:41:13.832Z,76640
2018-06-29T09:42:23.601Z,78080
2018-06-29T09:43:33.631Z,79968
2018-06-29T09:44:43.643Z,83488
2018-06-29T09:45:53.641Z,85120
2018-06-29T09:47:03.847Z,85920
2018-06-29T09:48:14.533Z,87744
2018-06-29T09:49:24.537Z,85952
2018-06-29T09:50:34.542Z,73216
2018-06-29T09:51:44.546Z,62240
2018-06-29T09:52:54.617Z,75040
2018-06-29T09:54:04.987Z,84032
2018-06-29T09:55:15.158Z,77984
2018-06-29T09:56:24.886Z,72736
2018-06-29T09:57:34.420Z,63776
2018-06-29T09:58:44.420Z,62752
2018-06-29T09:59:54.481Z,60864
2018-06-29T10:01:04.372Z,36192
2018-06-29T10:02:14.259Z,44288
2018-06-29T10:03:24.348Z,43008
2018-06-29T10:04:34.338Z,48480
2018-06-29T10:05:44.347Z,48736
2018-06-29T10:06:54.347Z,51904
2018-06-29T10:08:04.108Z,63712
2018-06-29T10:09:14.116Z,71296
2018-06-29T10:10:24.129Z,69728
2018-06-29T10:11:34.123Z,97472
2018-06-29T10:12:43.852Z,91584
2018-06-29T10:13:53.835Z,94784
2018-06-29T10:15:03.827Z,97408
2018-06-29T10:16:13.827Z,94848
2018-06-29T10:17:23.298Z,94752
2018-06-29T10:18:33.299Z,98304
2018-06-29T10:19:43.676Z,101344
2018-06-29T10:20:54.040Z,92832
2018-06-29T10:22:04.072Z,97760
2018-06-29T10:23:14.169Z,90304
2018-06-29T10:24:24.539Z,77696
2018-06-29T10:25:35.054Z,64480
2018-06-29T10:26:45.131Z,85408
2018-06-29T10:27:54.964Z,85184
2018-06-29T10:29:05.058Z,78912
2018-06-29T10:30:14.837Z,89312
2018-06-29T10:31:24.579Z,89344
2018-06-29T10:32:34.589Z,68672
2018-06-29T10:33:44.590Z,88224
2018-06-29T10:34:54.373Z,109344
2018-06-29T10:36:04.755Z,116800
2018-06-29T10:37:14.364Z,107040
2018-06-29T10:38:24.415Z,101184
2018-06-29T10:39:34.222Z,92608
2018-06-29T10:40:43.961Z,92256
2018-06-29T10:41:53.954Z,80192
2018-06-29T10:43:03.954Z,71520
2018-06-29T10:44:13.940Z,109888
2018-06-29T10:45:23.946Z,94368
2018-06-29T10:46:33.954Z,117120
2018-06-29T10:47:44.210Z,89344
2018-06-29T10:48:53.941Z,41792
2018-06-29T10:50:03.924Z,92128
2018-06-29T10:51:13.935Z,67264
2018-06-29T10:52:23.698Z,110720
2018-06-29T10:53:33.725Z,116512
2018-06-29T10:54:43.491Z,108864
2018-06-29T10:55:53.243Z,100640
2018-06-29T10:57:03.234Z,128800
2018-06-29T10:58:13.228Z,48128
2018-06-29T10:59:23.231Z,71072
2018-06-29T11:00:33.252Z,65024
2018-06-29T11:01:43.254Z,84736
2018-06-29T11:02:53.270Z,121056
2018-06-29T11:04:03.000Z,102624
2018-06-29T11:05:13.017Z,100864
2018-06-29T11:06:23.016Z,119488
2018-06-29T11:07:32.757Z,118112
2018-06-29T11:08:42.748Z,125056
2018-06-29T11:09:52.496Z,127840
2018-06-29T11:11:02.778Z,124224
2018-06-29T11:12:12.866Z,124544
2018-06-29T11:13:22.605Z,123552
2018-06-29T11:14:32.618Z,119040
2018-06-29T11:15:42.378Z,126592
2018-06-29T11:16:52.352Z,129056
2018-06-29T11:18:02.213Z,120864
2018-06-29T11:19:12.212Z,130976
2018-06-29T11:20:22.230Z,138912
2018-06-29T11:21:31.979Z,120736
2018-06-29T11:22:42.323Z,114624
2018-06-29T11:23:52.428Z,119744
2018-06-29T11:25:02.442Z,110656
2018-06-29T11:26:12.172Z,125248
2018-06-29T11:27:22.170Z,125952
2018-06-29T11:28:32.172Z,128288
2018-06-29T11:29:42.210Z,123360
2018-06-29T11:30:52.203Z,121408
2018-06-29T11:32:02.196Z,110368
2018-06-29T11:33:12.218Z,103936
2018-06-29T11:34:22.207Z,86752
2018-06-29T11:35:32.194Z,82688
2018-06-29T11:36:42.052Z,77888
2018-06-29T11:37:52.094Z,85824
2018-06-29T11:39:01.848Z,89920
2018-06-29T11:40:11.869Z,90464
2018-06-29T11:41:21.855Z,78752
2018-06-29T11:42:32.091Z,87264
2018-06-29T11:43:42.234Z,83264
2018-06-29T11:44:51.978Z,87552
2018-06-29T11:46:01.697Z,70080
2018-06-29T11:47:11.418Z,64192
2018-06-29T11:48:21.409Z,66752
2018-06-29T11:49:31.431Z,67488
2018-06-29T11:50:41.182Z,69984
2018-06-29T11:51:51.185Z,80320
2018-06-29T11:53:01.192Z,79840
2018-06-29T11:54:11.189Z,74912
2018-06-29T11:55:21.187Z,82912
2018-06-29T11:56:30.952Z,82880
2018-06-29T11:57:40.697Z,100096
2018-06-29T11:58:50.718Z,90272
2018-06-29T12:00:00.454Z,102464
2018-06-29T12:01:10.453Z,78688
2018-06-29T12:02:20.444Z,72480
2018-06-29T12:03:30.171Z,72672
2018-06-29T12:04:39.901Z,63296
2018-06-29T12:05:49.666Z,56992
2018-06-29T12:06:59.733Z,91712
2018-06-29T12:08:09.583Z,124032
2018-06-29T12:09:19.579Z,125504
2018-06-29T12:10:29.607Z,124064
2018-06-29T12:11:39.607Z,107328
2018-06-29T12:12:49.604Z,92064
2018-06-29T12:13:59.593Z,103392
2018-06-29T12:15:09.590Z,117568
2018-06-29T12:16:19.586Z,131232
2018-06-29T12:17:29.571Z,106912
2018-06-29T12:18:39.580Z,125280
2018-06-29T12:19:49.557Z,138656
2018-06-29T12:20:59.683Z,132512
2018-06-29T12:22:09.480Z,130912
2018-06-29T12:23:19.687Z,145184
2018-06-29T12:24:29.788Z,144224
2018-06-29T12:25:40.027Z,132512
2018-06-29T12:26:50.027Z,111936
2018-06-29T12:27:59.945Z,83808
2018-06-29T12:29:10.203Z,107488
2018-06-29T12:30:20.199Z,96832
2018-06-29T12:31:30.191Z,104032
2018-06-29T12:32:40.184Z,105376
2018-06-29T12:33:50.390Z,121504
2018-06-29T12:35:00.394Z,127968
2018-06-29T12:36:10.381Z,118656
2018-06-29T12:37:20.102Z,114624
2018-06-29T12:38:30.096Z,109664
2018-06-29T12:39:40.073Z,105888
2018-06-29T12:40:49.803Z,118368
2018-06-29T12:41:59.531Z,133152
2018-06-29T12:43:09.279Z,131040
2018-06-29T12:44:19.267Z,126944
2018-06-29T12:45:28.740Z,122752
2018-06-29T12:46:38.482Z,128960
2018-06-29T12:47:48.480Z,132992
2018-06-29T12:48:58.218Z,131264
2018-06-29T12:50:07.954Z,130176
2018-06-29T12:51:17.947Z,132736
2018-06-29T12:52:27.959Z,126592
2018-06-29T12:53:37.693Z,125280
2018-06-29T12:54:47.685Z,130176
2018-06-29T12:55:58.059Z,130560
2018-06-29T12:57:08.141Z,132960
2018-06-29T12:58:18.182Z,132384
2018-06-29T12:59:28.162Z,129856
2018-06-29T13:00:38.180Z,133376
2018-06-29T13:01:47.921Z,131584
2018-06-29T13:02:57.664Z,125888
2018-06-29T13:04:07.660Z,128640
2018-06-29T13:05:17.952Z,138560
2018-06-29T13:06:27.812Z,129312
2018-06-29T13:07:37.829Z,126848
2018-06-29T13:08:47.578Z,133792
2018-06-29T13:09:57.589Z,123392
2018-06-29T13:11:07.351Z,122720
2018-06-29T13:12:17.326Z,131744
2018-06-29T13:13:26.820Z,141216
2018-06-29T13:14:36.793Z,136352
2018-06-29T13:15:46.550Z,129088
2018-06-29T13:16:56.530Z,125696
2018-06-29T13:18:06.513Z,132352
2018-06-29T13:19:16.493Z,127680
2018-06-29T13:20:26.502Z,112256
2018-06-29T13:21:36.501Z,110912
2018-06-29T13:22:46.499Z,103648
2018-06-29T13:23:56.229Z,109696
2018-06-29T13:25:06.901Z,124448
2018-06-29T13:26:16.970Z,101440
2018-06-29T13:27:26.982Z,91520
2018-06-29T13:28:37.230Z,100864
2018-06-29T13:29:47.245Z,65920
2018-06-29T13:30:57.520Z,50592
2018-06-29T13:32:07.562Z,99712
2018-06-29T13:33:17.538Z,132256
2018-06-29T13:34:27.567Z,142016
2018-06-29T13:35:37.549Z,136576
2018-06-29T13:36:47.267Z,131104
2018-06-29T13:37:57.266Z,123200
2018-06-29T13:39:06.772Z,128640
2018-06-29T13:40:16.776Z,121952
2018-06-29T13:41:26.770Z,127904
2018-06-29T13:42:36.780Z,133920
2018-06-29T13:43:46.532Z,126656
2018-06-29T13:44:56.275Z,124864
2018-06-29T13:46:06.282Z,119776
2018-06-29T13:47:16.276Z,128640
2018-06-29T13:48:26.017Z,136032
2018-06-29T13:49:35.740Z,144768
2018-06-29T13:50:45.744Z,116672
2018-06-29T13:51:55.741Z,133856
2018-06-29T13:53:05.477Z,124800
2018-06-29T13:54:15.201Z,111296
2018-06-29T13:55:25.209Z,94848
2018-06-29T13:56:35.212Z,113824
2018-06-29T13:57:44.947Z,121856
2018-06-29T13:58:54.959Z,112992
2018-06-29T14:00:04.705Z,114432
2018-06-29T14:01:14.701Z,108384
2018-06-29T14:02:24.455Z,106112
2018-06-29T14:03:34.559Z,96416
2018-06-29T14:04:44.287Z,68288
2018-06-29T14:05:54.021Z,51936
2018-06-29T14:07:03.752Z,50048
2018-06-29T14:08:13.747Z,66752
2018-06-29T14:09:23.484Z,82176
2018-06-29T14:10:33.460Z,94592
2018-06-29T14:11:43.440Z,92960
2018-06-29T14:12:53.435Z,102496
2018-06-29T14:14:03.464Z,86784
2018-06-29T14:15:13.444Z,97984
2018-06-29T14:16:23.168Z,104608
2018-06-29T14:17:33.177Z,122432
2018-06-29T14:18:42.647Z,108352
2018-06-29T14:19:52.639Z,116224
2018-06-29T14:21:01.858Z,111424
2018-06-29T14:22:11.619Z,73632
2018-06-29T14:23:21.606Z,51808
2018-06-29T14:24:31.658Z,45504
2018-06-29T14:25:41.640Z,48800
2018-06-29T14:26:51.637Z,60224
2018-06-29T14:28:01.633Z,66656
2018-06-29T14:29:11.495Z,74368
2018-06-29T14:30:20.971Z,70976
2018-06-29T14:31:30.713Z,63168
2018-06-29T14:32:40.432Z,55968
2018-06-29T14:33:50.153Z,55808
2018-06-29T14:35:00.181Z,56064
2018-06-29T14:36:10.172Z,58016
2018-06-29T14:37:19.895Z,50112
2018-06-29T14:38:29.640Z,43776
2018-06-29T14:39:39.633Z,46720
2018-06-29T14:40:49.663Z,58304
2018-06-29T14:41:59.711Z,42272
2018-06-29T14:43:09.455Z,43424
2018-06-29T14:44:19.429Z,42848
2018-06-29T14:45:29.408Z,42144
2018-06-29T14:46:39.294Z,41504
2018-06-29T14:47:49.005Z,42208
2018-06-29T14:48:58.725Z,39840
2018-06-29T14:50:08.712Z,42816
2018-06-29T14:51:18.444Z,63232
2018-06-29T14:52:28.434Z,59040
2018-06-29T14:53:38.442Z,89568
2018-06-29T14:54:48.432Z,86080
2018-06-29T14:55:58.408Z,72768
2018-06-29T14:57:08.165Z,64704
2018-06-29T14:58:18.144Z,108864
2018-06-29T14:59:28.129Z,65568
2018-06-29T15:00:38.134Z,75424
2018-06-29T15:01:47.870Z,86240
2018-06-29T15:02:58.098Z,114144
2018-06-29T15:04:08.299Z,108800
2018-06-29T15:05:18.040Z,109184
2018-06-29T15:06:28.015Z,114848
2018-06-29T15:07:38.008Z,106752
2018-06-29T15:08:47.988Z,116192
2018-06-29T15:09:57.985Z,101952
2018-06-29T15:11:07.965Z,86432
2018-06-29T15:12:17.951Z,89056
2018-06-29T15:13:27.950Z,79616
2018-06-29T15:14:37.678Z,80512
2018-06-29T15:15:47.836Z,71008
2018-06-29T15:16:57.634Z,68608
2018-06-29T15:18:07.380Z,69440
2018-06-29T15:19:17.348Z,65504
2018-06-29T15:20:27.090Z,48736
2018-06-29T15:21:37.110Z,40896
2018-06-29T15:22:47.161Z,39072
2018-06-29T15:23:57.153Z,42816
2018-06-29T15:25:07.174Z,119936